createdAt,value
2023-02-25T00:01:08.478Z,5.35
2023-02-25T00:03:36.061Z,4.65
2023-02-25T00:06:03.968Z,6.28
2023-02-25T00:08:30.774Z,6.35
2023-02-25T00:11:05.347Z,6.35
2023-02-25T00:13:32.148Z,6.90
2023-02-25T00:15:59.267Z,6.40
2023-02-25T00:18:26.920Z,7.28
2023-02-25T00:20:54.169Z,8.05
2023-02-25T00:23:21.025Z,8.38
2023-02-25T00:25:48.126Z,7.40
2023-02-25T00:28:14.973Z,8.38
2023-02-25T00:30:44.921Z,7.78
2023-02-25T00:33:11.705Z,8.85
2023-02-25T00:35:40.312Z,8.25
2023-02-25T00:38:15.779Z,8.98
2023-02-25T00:40:43.538Z,9.68
2023-02-25T00:43:10.648Z,9.43
2023-02-25T00:45:39.544Z,9.48
2023-02-25T00:48:07.037Z,11.05
2023-02-25T00:50:34.815Z,11.00
2023-02-25T00:53:01.579Z,11.02
2023-02-25T00:55:33.365Z,11.02
2023-02-25T00:58:01.247Z,11.27
2023-02-25T01:00:29.289Z,11.85
2023-02-25T01:02:57.238Z,12.18
2023-02-25T01:05:24.698Z,12.57
2023-02-25T01:07:51.837Z,13.38
2023-02-25T01:10:19.139Z,14.52
2023-02-25T01:12:45.935Z,13.70
2023-02-25T01:15:13.332Z,14.50
2023-02-25T01:17:40.250Z,14.75
2023-02-25T01:20:12.162Z,13.93
2023-02-25T01:22:41.837Z,17.38
2023-02-25T01:25:13.276Z,15.93
2023-02-25T01:27:40.056Z,16.55
2023-02-25T01:30:08.286Z,18.15
2023-02-25T01:32:35.335Z,18.58
2023-02-25T01:35:02.445Z,20.40
2023-02-25T01:37:29.325Z,20.10
2023-02-25T01:39:56.510Z,21.67
2023-02-25T01:42:24.084Z,21.52
2023-02-25T01:45:19.442Z,22.98
2023-02-25T01:48:10.410Z,22.63
2023-02-25T01:50:44.017Z,22.98
2023-02-25T01:53:10.913Z,24.42
2023-02-25T01:55:39.133Z,24.50
2023-02-25T01:58:05.867Z,25.73
2023-02-25T02:00:32.933Z,24.40
2023-02-25T02:02:59.800Z,26.40
2023-02-25T02:05:42.517Z,25.00
2023-02-25T02:08:09.514Z,25.92
2023-02-25T02:10:36.552Z,26.85
2023-02-25T02:13:03.302Z,26.08
2023-02-25T02:15:31.549Z,28.35
2023-02-25T02:17:59.571Z,28.73
2023-02-25T02:20:57.564Z,28.40
2023-02-25T02:23:58.080Z,27.83
2023-02-25T02:26:49.416Z,28.65
2023-02-25T02:30:00.789Z,27.33
2023-02-25T02:32:40.674Z,26.50
2023-02-25T02:35:18.979Z,27.10
2023-02-25T02:38:14.628Z,26.25
2023-02-25T02:40:47.960Z,24.10
2023-02-25T02:43:17.996Z,25.40
2023-02-25T02:45:49.803Z,24.50
2023-02-25T02:48:33.954Z,24.45
2023-02-25T02:51:02.161Z,22.90
2023-02-25T02:53:32.521Z,21.95
2023-02-25T02:56:00.495Z,21.23
2023-02-25T02:58:29.628Z,20.70
2023-02-25T03:01:07.085Z,21.27
2023-02-25T03:03:41.312Z,21.00
2023-02-25T03:06:09.499Z,21.15
2023-02-25T03:08:44.725Z,20.13
2023-02-25T03:11:12.135Z,18.92
2023-02-25T03:13:39.578Z,17.67
2023-02-25T03:16:10.234Z,17.63
2023-02-25T03:18:43.952Z,17.13
2023-02-25T03:21:15.983Z,15.27
2023-02-25T03:23:43.239Z,14.73
2023-02-25T03:26:22.626Z,13.10
2023-02-25T03:28:49.919Z,12.32
2023-02-25T03:31:25.027Z,11.00
2023-02-25T03:33:58.230Z,11.30
2023-02-25T03:36:42.902Z,9.55
2023-02-25T03:39:29.129Z,9.18
2023-02-25T03:41:58.530Z,8.45
2023-02-25T03:44:28.327Z,8.77
2023-02-25T03:46:55.152Z,8.48
2023-02-25T03:49:31.453Z,7.93
2023-02-25T03:51:58.295Z,7.10
2023-02-25T03:54:25.342Z,6.82
2023-02-25T03:56:52.076Z,7.03
2023-02-25T03:59:19.412Z,6.95
2023-02-25T04:01:47.277Z,6.80
2023-02-25T04:04:14.496Z,6.75
2023-02-25T04:06:41.562Z,5.80
2023-02-25T04:09:08.600Z,6.57
2023-02-25T04:11:35.399Z,5.78
2023-02-25T04:14:02.415Z,6.28
2023-02-25T04:16:29.143Z,6.18
2023-02-25T04:18:56.172Z,6.18
2023-02-25T04:21:31.393Z,6.40
2023-02-25T04:23:58.648Z,6.40
2023-02-25T04:26:25.663Z,5.65
2023-02-25T04:28:52.954Z,6.55
2023-02-25T04:31:20.242Z,4.63
2023-02-25T04:33:50.067Z,5.38
2023-02-25T04:36:30.699Z,5.80
2023-02-25T04:39:01.564Z,4.93
2023-02-25T04:41:30.132Z,4.47
2023-02-25T04:43:57.243Z,5.50
2023-02-25T04:46:24.307Z,5.40
2023-02-25T04:48:51.650Z,4.63
2023-02-25T04:51:18.579Z,4.70
2023-02-25T04:53:46.961Z,4.78
2023-02-25T04:56:13.892Z,4.80
2023-02-25T04:58:40.972Z,4.80
2023-02-25T05:01:09.165Z,4.70
2023-02-25T05:03:36.385Z,4.35
2023-02-25T05:06:03.578Z,4.10
2023-02-25T05:08:30.652Z,4.55
2023-02-25T05:10:57.449Z,4.85
2023-02-25T05:13:24.571Z,4.90
2023-02-25T05:15:51.531Z,5.03
2023-02-25T05:18:18.715Z,4.07
2023-02-25T05:20:46.441Z,4.40
2023-02-25T05:23:14.042Z,4.40
2023-02-25T05:25:41.283Z,4.72
2023-02-25T05:28:09.376Z,5.18
2023-02-25T05:30:36.944Z,5.45
2023-02-25T05:33:04.648Z,6.32
2023-02-25T05:35:32.591Z,6.32
2023-02-25T05:37:59.990Z,6.28
2023-02-25T05:40:26.996Z,7.10
2023-02-25T05:42:54.096Z,6.03
2023-02-25T05:45:20.864Z,6.20
2023-02-25T05:47:47.985Z,6.30
2023-02-25T05:50:14.743Z,6.88
2023-02-25T05:52:42.083Z,6.60
2023-02-25T05:55:09.543Z,6.93
2023-02-25T05:57:36.878Z,7.72
2023-02-25T06:00:07.220Z,7.63
2023-02-25T06:02:34.318Z,7.28
2023-02-25T06:05:01.273Z,6.93
2023-02-25T06:07:33.328Z,7.47
2023-02-25T06:10:00.997Z,7.30
2023-02-25T06:12:28.814Z,6.75
2023-02-25T06:14:55.619Z,6.70
2023-02-25T06:17:24.711Z,7.18
2023-02-25T06:19:52.280Z,6.50
2023-02-25T06:22:20.040Z,4.97
2023-02-25T06:24:46.836Z,7.10
2023-02-25T06:27:14.400Z,5.13
2023-02-25T06:29:41.798Z,6.13
2023-02-25T06:32:10.184Z,6.07
2023-02-25T06:34:37.564Z,5.68
2023-02-25T06:37:04.649Z,5.50
2023-02-25T06:39:31.403Z,5.78
2023-02-25T06:41:58.584Z,6.63
2023-02-25T06:44:27.020Z,6.05
2023-02-25T06:46:56.739Z,5.68
2023-02-25T06:49:23.893Z,4.85
2023-02-25T06:51:50.963Z,4.65
2023-02-25T06:54:18.075Z,4.93
2023-02-25T06:56:45.295Z,4.78
2023-02-25T06:59:12.136Z,3.92
2023-02-25T07:01:39.269Z,3.90
2023-02-25T07:04:06.135Z,3.80
2023-02-25T07:06:33.258Z,3.28
2023-02-25T07:09:00.014Z,3.08
2023-02-25T07:11:30.141Z,3.53
2023-02-25T07:13:57.024Z,3.20
2023-02-25T07:16:24.349Z,3.42
2023-02-25T07:18:51.375Z,3.13
2023-02-25T07:21:18.673Z,2.63
2023-02-25T07:23:46.538Z,2.47
2023-02-25T07:26:14.038Z,2.35
2023-02-25T07:28:40.824Z,2.13
2023-02-25T07:31:12.371Z,2.30
2023-02-25T07:33:39.216Z,2.25
2023-02-25T07:36:06.287Z,1.95
2023-02-25T07:38:33.028Z,2.13
2023-02-25T07:41:13.958Z,2.10
2023-02-25T07:43:40.915Z,2.60
2023-02-25T07:46:08.698Z,1.70
2023-02-25T07:48:35.757Z,1.70
2023-02-25T07:51:13.330Z,1.80
2023-02-25T07:53:40.135Z,1.90
2023-02-25T07:56:07.635Z,2.30
2023-02-25T07:58:34.538Z,2.10
2023-02-25T08:01:03.512Z,1.60
2023-02-25T08:03:30.431Z,1.80
2023-02-25T08:05:57.556Z,1.70
2023-02-25T08:08:24.332Z,1.63
2023-02-25T08:10:51.606Z,1.60
2023-02-25T08:13:19.397Z,1.80
2023-02-25T08:15:46.626Z,1.90
2023-02-25T08:18:13.398Z,1.90
2023-02-25T08:20:40.477Z,1.80
2023-02-25T08:23:07.325Z,1.60
2023-02-25T08:25:34.382Z,1.90
2023-02-25T08:28:01.320Z,1.90
2023-02-25T08:30:28.541Z,1.70
2023-02-25T08:32:55.381Z,1.55
2023-02-25T08:35:22.482Z,2.10
2023-02-25T08:37:49.309Z,2.10
2023-02-25T08:40:18.526Z,2.28
2023-02-25T08:42:46.686Z,1.77
2023-02-25T08:45:13.747Z,2.38
2023-02-25T08:47:40.451Z,1.73
2023-02-25T08:50:08.316Z,3.03
2023-02-25T08:52:35.096Z,2.28
2023-02-25T08:55:02.688Z,2.17
2023-02-25T08:57:29.634Z,2.17
2023-02-25T08:59:56.669Z,3.83
2023-02-25T09:02:24.348Z,3.38
2023-02-25T09:04:51.722Z,3.80
2023-02-25T09:07:18.475Z,3.13
2023-02-25T09:09:45.670Z,2.47
2023-02-25T09:12:12.435Z,3.13
2023-02-25T09:14:39.514Z,3.47
2023-02-25T09:17:07.466Z,3.10
2023-02-25T09:19:34.501Z,3.65
2023-02-25T09:22:01.575Z,4.30
2023-02-25T09:24:30.100Z,3.63
2023-02-25T09:26:56.910Z,3.75
2023-02-25T09:29:24.000Z,3.65
2023-02-25T09:31:51.074Z,4.68
2023-02-25T09:34:18.392Z,3.97
2023-02-25T09:36:45.239Z,4.03
2023-02-25T09:39:12.960Z,4.05
2023-02-25T09:42:01.803Z,4.22
2023-02-25T09:44:34.238Z,4.03
2023-02-25T09:47:25.953Z,3.78
2023-02-25T09:50:00.135Z,4.07
2023-02-25T09:52:32.016Z,3.13
2023-02-25T09:55:06.971Z,3.75
2023-02-25T09:57:38.585Z,3.72
2023-02-25T10:00:18.088Z,3.70
2023-02-25T10:02:50.148Z,3.13
2023-02-25T10:05:26.981Z,3.53
2023-02-25T10:08:02.791Z,6.07
2023-02-25T10:10:47.234Z,7.43
2023-02-25T10:13:32.767Z,8.38
2023-02-25T10:18:56.027Z,10.70
2023-02-25T10:21:43.431Z,11.25
2023-02-25T10:24:29.006Z,10.73
2023-02-25T10:27:03.731Z,10.68
2023-02-25T10:29:35.642Z,10.60
2023-02-25T10:32:16.390Z,8.20
2023-02-25T10:34:43.369Z,7.68
2023-02-25T10:37:15.586Z,7.38
2023-02-25T10:39:42.409Z,6.40
2023-02-25T10:42:10.760Z,5.68
2023-02-25T10:44:37.592Z,5.00
2023-02-25T10:47:05.269Z,5.18
2023-02-25T10:49:38.278Z,4.65
2023-02-25T10:52:06.351Z,4.03
2023-02-25T10:54:34.942Z,4.30
2023-02-25T10:57:08.476Z,3.28
2023-02-25T10:59:38.491Z,4.38
2023-02-25T11:02:21.268Z,3.25
2023-02-25T11:04:48.519Z,4.03
2023-02-25T11:07:37.570Z,3.83
2023-02-25T11:10:20.487Z,3.78
2023-02-25T11:12:55.319Z,4.50
2023-02-25T11:15:46.123Z,3.65
2023-02-25T11:18:24.249Z,4.45
2023-02-25T11:20:56.046Z,3.58
2023-02-25T11:23:43.399Z,4.57
2023-02-25T11:26:18.336Z,4.75
2023-02-25T11:31:30.048Z,4.55
2023-02-25T11:33:59.392Z,4.68
2023-02-25T11:36:33.892Z,5.03
2023-02-25T11:39:32.568Z,4.82
2023-02-25T11:42:02.337Z,6.38
2023-02-25T11:44:30.269Z,6.85
2023-02-25T11:47:06.045Z,6.95
2023-02-25T11:49:42.870Z,6.70
2023-02-25T11:52:14.494Z,5.85
2023-02-25T11:55:19.097Z,5.90
2023-02-25T11:58:33.367Z,5.90
2023-02-25T12:01:14.692Z,5.72
2023-02-25T12:04:03.539Z,5.70
2023-02-25T12:06:46.046Z,5.65
2023-02-25T12:09:46.774Z,5.25
2023-02-25T12:12:19.952Z,5.80
2023-02-25T12:15:07.587Z,6.32
2023-02-25T12:18:22.305Z,5.75
2023-02-25T12:20:54.945Z,4.85
2023-02-25T12:23:49.852Z,4.65
2023-02-25T12:26:31.708Z,4.80
2023-02-25T12:29:07.740Z,4.95
2023-02-25T12:31:53.931Z,5.03
2023-02-25T12:34:33.297Z,4.13
2023-02-25T12:37:18.882Z,3.88
2023-02-25T12:40:08.162Z,3.83
2023-02-25T12:42:53.882Z,3.70
2023-02-25T12:45:34.031Z,3.83
2023-02-25T12:48:00.872Z,4.25
2023-02-25T12:50:45.966Z,3.45
2023-02-25T12:53:21.794Z,3.05
2023-02-25T12:56:16.100Z,3.40
2023-02-25T12:59:31.043Z,3.28
2023-02-25T13:02:19.622Z,3.85
2023-02-25T13:05:08.950Z,3.17
2023-02-25T13:08:10.130Z,3.03
2023-02-25T13:11:01.876Z,2.80
2023-02-25T13:13:53.742Z,3.05
2023-02-25T13:16:35.506Z,3.03
2023-02-25T13:19:43.540Z,2.78
2023-02-25T13:22:16.346Z,2.70
2023-02-25T13:24:57.062Z,3.40
2023-02-25T13:27:52.261Z,3.25
2023-02-25T13:30:29.843Z,3.13
2023-02-25T13:33:21.727Z,3.38
2023-02-25T13:36:09.992Z,3.28
2023-02-25T13:39:22.048Z,2.83
2023-02-25T13:41:55.154Z,3.28
2023-02-25T13:44:42.451Z,3.17
2023-02-25T13:47:25.216Z,2.92
2023-02-25T13:50:23.127Z,3.45
2023-02-25T13:53:26.229Z,3.70
2023-02-25T13:56:08.051Z,3.03
2023-02-25T13:58:55.645Z,2.95
2023-02-25T14:01:45.137Z,2.80
2023-02-25T14:04:49.392Z,2.70
2023-02-25T14:07:56.944Z,2.33
2023-02-25T14:10:36.123Z,2.38
2023-02-25T14:13:39.572Z,2.75
2023-02-25T14:16:18.784Z,2.83
2023-02-25T14:19:00.695Z,2.58
2023-02-25T14:21:37.026Z,2.47
2023-02-25T14:24:19.304Z,3.20
2023-02-25T14:27:02.594Z,2.83
2023-02-25T14:29:35.626Z,2.80
2023-02-25T14:32:33.708Z,2.85
2023-02-25T14:35:06.455Z,2.78
2023-02-25T14:37:42.766Z,3.45
2023-02-25T14:40:15.808Z,2.95
2023-02-25T14:42:49.174Z,2.88
2023-02-25T14:45:20.400Z,2.80
2023-02-25T14:47:58.702Z,3.03
2023-02-25T14:50:28.469Z,2.78
2023-02-25T14:53:31.076Z,3.15
2023-02-25T14:56:43.136Z,3.15
2023-02-25T14:59:34.678Z,3.03
2023-02-25T15:02:14.492Z,2.75
2023-02-25T15:04:59.910Z,3.75
2023-02-25T15:07:39.635Z,3.60
2023-02-25T15:10:33.080Z,3.65
2023-02-25T15:13:00.048Z,3.95
2023-02-25T15:16:02.699Z,3.55
2023-02-25T15:18:49.648Z,3.72
2023-02-25T15:21:29.324Z,3.97
2023-02-25T15:23:56.460Z,4.47
2023-02-25T15:26:39.079Z,5.03
2023-02-25T15:29:06.064Z,5.40
2023-02-25T15:31:34.265Z,5.50
2023-02-25T15:34:23.047Z,5.57
2023-02-25T15:36:51.959Z,5.57
2023-02-25T15:39:49.079Z,6.78
2023-02-25T15:42:16.444Z,6.82
2023-02-25T15:44:44.213Z,6.65
2023-02-25T15:47:25.563Z,6.30
2023-02-25T15:49:52.733Z,6.82
2023-02-25T15:52:55.404Z,6.45
2023-02-25T15:55:36.625Z,6.10
2023-02-25T15:58:30.355Z,5.15
2023-02-25T16:01:06.840Z,5.18
2023-02-25T16:03:36.894Z,5.63
2023-02-25T16:06:20.402Z,4.65
2023-02-25T16:08:47.563Z,4.88
2023-02-25T16:11:34.392Z,5.15
2023-02-25T16:14:04.429Z,4.57
2023-02-25T16:16:31.416Z,5.18
2023-02-25T16:18:58.575Z,3.95
2023-02-25T16:21:38.749Z,4.15
2023-02-25T16:24:10.221Z,4.40
2023-02-25T16:26:55.539Z,4.57
2023-02-25T16:29:44.228Z,4.05
2023-02-25T16:32:35.659Z,3.90
2023-02-25T16:35:24.468Z,4.07
2023-02-25T16:38:29.127Z,4.50
2023-02-25T16:40:59.076Z,3.78
2023-02-25T16:43:27.587Z,3.80
2023-02-25T16:46:02.970Z,4.10
2023-02-25T16:48:34.460Z,4.07
2023-02-25T16:51:21.900Z,4.13
2023-02-25T16:53:50.247Z,4.50
2023-02-25T16:56:20.113Z,4.15
2023-02-25T16:59:00.450Z,4.78
2023-02-25T17:01:28.706Z,4.78
2023-02-25T17:04:01.488Z,3.78
2023-02-25T17:06:28.608Z,3.88
2023-02-25T17:08:55.478Z,4.40
2023-02-25T17:11:23.188Z,4.28
2023-02-25T17:13:51.396Z,4.25
2023-02-25T17:16:29.956Z,3.83
2023-02-25T17:18:58.820Z,4.65
2023-02-25T17:21:33.715Z,3.90
2023-02-25T17:24:00.796Z,4.60
2023-02-25T17:26:28.240Z,5.10
2023-02-25T17:28:59.651Z,4.88
2023-02-25T17:31:28.578Z,5.10
2023-02-25T17:34:04.134Z,5.60
2023-02-25T17:36:33.549Z,4.75
2023-02-25T17:39:02.587Z,5.07
2023-02-25T17:41:30.494Z,5.45
2023-02-25T17:43:57.399Z,5.28
2023-02-25T17:46:36.230Z,5.43
2023-02-25T17:49:42.107Z,6.22
2023-02-25T17:52:28.217Z,5.25
2023-02-25T17:57:24.832Z,4.82
2023-02-25T17:59:55.868Z,5.38
2023-02-25T18:02:22.963Z,5.65
2023-02-25T18:04:51.029Z,5.95
2023-02-25T18:07:28.365Z,5.78
2023-02-25T18:09:55.921Z,6.15
2023-02-25T18:12:34.624Z,6.45
2023-02-25T18:15:02.267Z,6.32
2023-02-25T18:17:33.164Z,6.50
2023-02-25T18:20:01.925Z,6.13
2023-02-25T18:22:32.071Z,5.80
2023-02-25T18:25:00.604Z,6.85
2023-02-25T18:27:30.613Z,6.60
2023-02-25T18:29:59.755Z,6.85
2023-02-25T18:32:27.479Z,5.72
2023-02-25T18:34:54.396Z,6.55
2023-02-25T18:37:21.644Z,5.88
2023-02-25T18:39:48.700Z,6.50
2023-02-25T18:42:17.093Z,6.35
2023-02-25T18:44:44.013Z,5.88
2023-02-25T18:47:11.107Z,5.90
2023-02-25T18:49:37.901Z,6.20
2023-02-25T18:52:06.301Z,5.70
2023-02-25T18:54:33.154Z,5.03
2023-02-25T18:57:00.247Z,4.90
2023-02-25T18:59:27.028Z,6.07
2023-02-25T19:01:54.148Z,5.30
2023-02-25T19:04:21.101Z,5.40
2023-02-25T19:06:48.578Z,5.13
2023-02-25T19:09:18.376Z,5.35
2023-02-25T19:11:45.502Z,4.88
2023-02-25T19:14:16.377Z,4.50
2023-02-25T19:16:43.524Z,5.70
2023-02-25T19:19:10.345Z,6.10
2023-02-25T19:21:37.426Z,5.85
2023-02-25T19:24:05.166Z,6.85
2023-02-25T19:26:32.238Z,6.15
2023-02-25T19:28:59.205Z,6.05
2023-02-25T19:31:26.393Z,6.45
2023-02-25T19:33:53.269Z,6.38
2023-02-25T19:36:20.343Z,5.90
2023-02-25T19:38:47.147Z,6.97
2023-02-25T19:41:14.458Z,6.10
2023-02-25T19:43:41.313Z,5.82
2023-02-25T19:46:08.907Z,6.60
2023-02-25T19:48:35.926Z,6.30
2023-02-25T19:51:07.557Z,6.47
2023-02-25T19:53:34.492Z,6.53
2023-02-25T19:56:03.063Z,5.57
2023-02-25T19:58:31.973Z,5.57
2023-02-25T20:01:06.426Z,6.20
2023-02-25T20:03:33.894Z,6.55
2023-02-25T20:06:08.592Z,6.10
2023-02-25T20:08:36.346Z,6.53
2023-02-25T20:11:03.383Z,7.57
2023-02-25T20:13:30.253Z,7.07
2023-02-25T20:16:01.525Z,7.55
2023-02-25T20:18:28.376Z,8.07
2023-02-25T20:20:55.485Z,7.45
2023-02-25T20:23:22.245Z,8.05
2023-02-25T20:25:49.340Z,8.82
2023-02-25T20:28:16.140Z,9.02
2023-02-25T20:30:43.276Z,8.35
2023-02-25T20:33:10.188Z,9.85
2023-02-25T20:35:37.522Z,10.23
2023-02-25T20:38:18.507Z,9.38
2023-02-25T20:40:45.739Z,10.45
2023-02-25T20:43:12.621Z,10.60
2023-02-25T20:45:40.025Z,9.63
2023-02-25T20:48:07.059Z,10.77
2023-02-25T20:50:34.562Z,9.80
2023-02-25T20:53:01.475Z,11.02
2023-02-25T20:55:28.673Z,10.13
2023-02-25T20:57:55.461Z,9.45
2023-02-25T21:00:22.570Z,9.38
2023-02-25T21:02:49.366Z,9.23
2023-02-25T21:05:16.582Z,8.85
2023-02-25T21:07:43.382Z,8.65
2023-02-25T21:10:11.194Z,8.55
2023-02-25T21:12:38.122Z,7.72
2023-02-25T21:15:05.635Z,7.15
2023-02-25T21:17:32.406Z,7.18
2023-02-25T21:19:59.506Z,6.88
2023-02-25T21:22:26.332Z,6.70
2023-02-25T21:24:53.426Z,6.38
2023-02-25T21:27:20.262Z,7.05
2023-02-25T21:29:47.415Z,6.72
2023-02-25T21:32:14.189Z,6.18
2023-02-25T21:34:41.291Z,5.78
2023-02-25T21:37:08.065Z,5.70
2023-02-25T21:39:35.127Z,5.78
2023-02-25T21:42:01.912Z,5.80
2023-02-25T21:44:29.026Z,6.22
2023-02-25T21:46:58.224Z,5.60
2023-02-25T21:49:26.249Z,5.40
2023-02-25T21:51:53.046Z,5.90
2023-02-25T21:54:20.108Z,5.45
2023-02-25T21:56:46.851Z,5.07
2023-02-25T21:59:15.313Z,5.10
2023-02-25T22:01:43.500Z,5.45
2023-02-25T22:04:11.392Z,5.40
2023-02-25T22:06:38.156Z,4.43
2023-02-25T22:09:06.600Z,4.85
2023-02-25T22:11:34.592Z,5.00
2023-02-25T22:14:02.796Z,4.63
2023-02-25T22:16:29.792Z,4.40
2023-02-25T22:18:57.051Z,4.85
2023-02-25T22:21:31.133Z,4.95
2023-02-25T22:23:59.841Z,5.10
2023-02-25T22:26:28.546Z,5.03
2023-02-25T22:28:56.689Z,4.93
2023-02-25T22:31:23.716Z,4.22
2023-02-25T22:33:50.982Z,4.43
2023-02-25T22:36:18.187Z,4.32
2023-02-25T22:38:45.967Z,4.25
2023-02-25T22:41:17.647Z,4.45
2023-02-25T22:43:44.924Z,4.38
2023-02-25T22:46:16.417Z,4.40
2023-02-25T22:48:45.058Z,4.40
2023-02-25T22:51:12.135Z,4.22
2023-02-25T22:53:40.022Z,4.93
2023-02-25T22:56:09.066Z,5.43
2023-02-25T22:58:38.746Z,4.88
2023-02-25T23:01:06.374Z,5.03
2023-02-25T23:03:34.059Z,4.97
2023-02-25T23:06:00.849Z,4.63
2023-02-25T23:08:28.045Z,4.40
2023-02-25T23:10:54.937Z,4.95
2023-02-25T23:13:22.028Z,4.82
2023-02-25T23:15:49.026Z,5.80
2023-02-25T23:18:16.184Z,5.25
2023-02-25T23:20:43.025Z,5.18
2023-02-25T23:23:13.522Z,5.35
2023-02-25T23:25:40.964Z,5.07
2023-02-25T23:28:08.582Z,5.60
2023-02-25T23:30:39.058Z,5.53
2023-02-25T23:33:06.287Z,5.45
2023-02-25T23:35:33.759Z,5.75
2023-02-25T23:38:01.005Z,5.45
2023-02-25T23:40:28.946Z,4.38
2023-02-25T23:42:56.262Z,5.00
2023-02-25T23:45:23.122Z,5.53
2023-02-25T23:47:50.322Z,4.70
2023-02-25T23:50:17.748Z,5.45
2023-02-25T23:52:45.599Z,5.82
2023-02-25T23:55:12.762Z,5.68
2023-02-25T23:57:40.034Z,5.45
